Terminal Aerodrome Forecast
Issued by NWS

Current Version | Previous Version | Text Only | Print | Product List | Glossary On
Versions: 1 2 3 4 5 6 7 8 9 10 11 12 13 14 15 16 17 18 19 20 21 22 23 24 25
000
FTUS41 KRNK 181127 AAC
TAFBCB
TAF AMD
KBCB 181127Z 1811/1912 27008KT P6SM FEW250 WS020/32040KT
     FM181600 29011KT P6SM SKC
     FM182300 28008KT P6SM SKC WS020/30040KT
     FM190600 28004KT P6SM SKC WS020/30040KT=

USA.gov is the U.S. government's official web portal to all federal, state and local government web resources and services.